Time;durP1;ratioP1;P1;durP2;ratioP2;P2;SDS_P1;SDS_P2;PMS_P1;PMS_P2;Temp;Humidity;BMP_temperature;BMP_pressure;BME280_temperature;BME280_humidity;BME280_pressure;Samples;Min_cycle;Max_cycle;Signal;HPM_P1;HPM_P2
2022/12/13 14:58:28;;;;;;;36.25;16.77;;;-3.70;99.90;;;;;;5062375;27;1512648;-66
2022/12/13 15:00:54;;;;;;;34.55;15.63;;;-3.80;99.90;;;;;;5099363;28;20016;-72
2022/12/13 15:03:22;;;;;;;40.97;17.35;;;-3.70;99.90;;;;;;5090327;28;20431;-70
2022/12/13 15:05:53;;;;;;;46.05;18.48;;;-3.70;99.90;;;;;;5088653;28;20035;-70
2022/12/13 15:08:19;;;;;;;31.83;16.57;;;-3.60;99.90;;;;;;5107421;28;20023;-74
2022/12/13 15:10:48;;;;;;;39.50;17.35;;;-3.60;99.90;;;;;;5105203;28;20281;-72
2022/12/13 15:13:47;;;;;;;34.58;15.25;;;-3.50;99.90;;;;;;5088751;28;20456;-71
2022/12/13 15:16:25;;;;;;;32.03;17.25;;;-3.40;99.90;;;;;;5089301;28;20085;-69
2022/12/13 15:19:27;;;;;;;34.83;15.82;;;-3.40;99.90;;;;;;5101852;28;20063;-73
2022/12/13 15:21:57;;;;;;;33.33;15.18;;;-3.40;99.90;;;;;;5106605;28;20472;-64
2022/12/13 15:24:29;;;;;;;36.50;14.45;;;-3.40;99.90;;;;;;5107614;28;20024;-72
2022/12/13 15:26:57;;;;;;;34.30;14.70;;;-3.40;99.90;;;;;;5089812;28;20153;-73
2022/12/13 15:29:25;;;;;;;34.08;16.92;;;-3.40;99.90;;;;;;5103477;28;20032;-72
2022/12/13 15:31:51;;;;;;;33.50;14.77;;;-3.40;99.90;;;;;;5088654;28;20026;-73
2022/12/13 15:34:32;;;;;;;33.92;15.32;;;-3.40;99.90;;;;;;5106966;28;20016;-73
2022/12/13 15:37:01;;;;;;;40.40;18.65;;;-3.40;99.90;;;;;;5086603;28;20745;-73
2022/12/13 15:39:27;;;;;;;39.42;18.42;;;-3.40;99.90;;;;;;5106794;28;20533;-71
2022/12/13 15:41:54;;;;;;;39.60;16.90;;;-3.40;99.90;;;;;;5104835;28;20100;-73
2022/12/13 15:44:30;;;;;;;41.22;17.95;;;-3.40;99.90;;;;;;5106683;28;20027;-73
2022/12/13 15:47:04;;;;;;;38.33;16.50;;;-3.40;99.90;;;;;;5088830;28;20019;-72
2022/12/13 15:49:39;;;;;;;43.63;18.92;;;-3.40;99.90;;;;;;5084489;28;20456;-69
2022/12/13 15:52:13;;;;;;;33.03;15.80;;;-3.40;99.90;;;;;;5080973;28;20103;-70
2022/12/13 15:54:39;;;;;;;42.72;18.00;;;-3.40;99.90;;;;;;5085764;28;20012;-71
2022/12/13 15:57:20;;;;;;;35.03;16.70;;;-3.40;99.90;;;;;;5086378;28;20040;-69
2022/12/13 15:59:46;;;;;;;40.33;18.20;;;-3.40;99.90;;;;;;5076561;28;20360;-74
2022/12/13 16:02:23;;;;;;;33.40;15.13;;;-3.40;99.90;;;;;;5077518;28;20008;-70
2022/12/13 16:04:50;;;;;;;34.58;16.42;;;-3.40;99.90;;;;;;5104300;28;20032;-72
2022/12/13 16:07:30;;;;;;;47.42;18.88;;;-3.40;99.90;;;;;;5088843;28;20016;-72
2022/12/13 16:09:57;;;;;;;37.33;17.55;;;-3.50;99.90;;;;;;5090213;28;20020;-68
2022/12/13 16:12:35;;;;;;;39.75;17.00;;;-3.50;99.90;;;;;;5092420;28;20024;-68
2022/12/13 16:15:20;;;;;;;40.58;18.00;;;-3.50;99.90;;;;;;5087453;28;20023;-71
2022/12/13 16:18:09;;;;;;;40.22;18.05;;;-3.50;99.90;;;;;;5088362;28;20039;-69
2022/12/13 16:20:34;;;;;;;45.08;18.75;;;-3.50;99.90;;;;;;5071140;28;20093;-65
2022/12/13 16:23:00;;;;;;;48.47;21.42;;;-3.50;99.90;;;;;;5073767;28;20028;-68
2022/12/13 16:25:26;;;;;;;43.97;20.90;;;-3.50;99.90;;;;;;5076782;28;20435;-67
2022/12/13 16:27:51;;;;;;;42.92;19.75;;;-3.60;99.90;;;;;;5093104;28;20036;-71
2022/12/13 16:30:47;;;;;;;48.58;19.63;;;-3.60;99.90;;;;;;5092683;28;20111;-69
2022/12/13 16:33:13;;;;;;;48.60;19.70;;;-3.60;99.90;;;;;;5087295;28;20050;-71
2022/12/13 16:35:39;;;;;;;48.20;19.42;;;-3.70;99.90;;;;;;5075960;28;20536;-66
2022/12/13 16:38:04;;;;;;;39.70;18.50;;;-3.70;99.90;;;;;;5092636;28;20488;-69
2022/12/13 16:40:31;;;;;;;39.10;17.55;;;-3.70;99.90;;;;;;5088209;28;20012;-69
2022/12/13 16:43:03;;;;;;;41.40;18.05;;;-3.70;99.90;;;;;;5092611;28;20024;-66
2022/12/13 16:45:29;;;;;;;;;;;-3.70;99.90;;;;;;5089679;28;20016;-73
2022/12/13 16:47:55;;;;;;;39.42;16.42;;;-3.70;99.90;;;;;;5081706;28;19913;-64
2022/12/13 16:50:20;;;;;;;44.10;17.88;;;-3.70;99.90;;;;;;5076420;28;20099;-66
2022/12/13 16:52:47;;;;;;;43.53;17.85;;;-3.70;99.90;;;;;;5057270;28;20074;-68
2022/12/13 16:55:13;;;;;;;37.92;18.75;;;-3.70;99.90;;;;;;5081916;28;20078;-68
2022/12/13 16:57:39;;;;;;;36.28;17.50;;;-3.60;99.90;;;;;;5060855;28;20048;-70
2022/12/13 17:00:08;;;;;;;40.13;18.25;;;-3.60;99.90;;;;;;5049558;28;20062;-69
2022/12/13 17:02:35;;;;;;;43.58;19.33;;;-3.60;99.90;;;;;;5050836;28;20052;-70
2022/12/13 17:05:01;;;;;;;42.60;20.23;;;-3.60;99.90;;;;;;5066303;28;20066;-72
2022/12/13 17:07:28;;;;;;;38.28;17.85;;;-3.50;99.90;;;;;;5070481;28;20029;-71
2022/12/13 17:09:53;;;;;;;44.38;18.08;;;-3.50;99.90;;;;;;5065100;28;20477;-70
2022/12/13 17:12:19;;;;;;;47.83;21.10;;;-3.50;99.90;;;;;;5062874;28;20489;-70
2022/12/13 17:14:45;;;;;;;45.13;20.13;;;-3.50;99.90;;;;;;5060017;28;20017;-70
2022/12/13 17:17:10;;;;;;;43.25;18.67;;;-3.50;99.90;;;;;;5053401;28;20033;-69
2022/12/13 17:19:36;;;;;;;42.63;19.98;;;-3.50;99.90;;;;;;5064797;28;20036;-74
2022/12/13 17:22:02;;;;;;;47.90;20.15;;;-3.50;99.90;;;;;;5053811;28;20021;-69
2022/12/13 17:24:29;;;;;;;46.15;21.85;;;-3.50;99.90;;;;;;5057672;28;20118;-67
2022/12/13 17:26:55;;;;;;;41.17;18.73;;;-3.40;99.90;;;;;;5067949;28;20012;-69
2022/12/13 17:29:23;;;;;;;46.22;21.67;;;-3.40;99.90;;;;;;5071015;28;20044;-67
2022/12/13 17:31:49;;;;;;;41.85;22.05;;;-3.30;99.90;;;;;;5071845;28;20446;-67
2022/12/13 17:34:14;;;;;;;49.55;21.70;;;-3.40;99.90;;;;;;5067637;28;20107;-69
2022/12/13 17:36:41;;;;;;;47.33;20.90;;;-3.40;99.90;;;;;;5054753;28;20124;-69
2022/12/13 17:39:07;;;;;;;52.38;21.45;;;-3.50;99.90;;;;;;5071377;28;20115;-67
2022/12/13 17:41:32;;;;;;;42.90;19.55;;;-3.60;99.90;;;;;;5067571;28;20095;-68
2022/12/13 17:43:59;;;;;;;40.72;18.98;;;-3.60;99.90;;;;;;5065803;28;20082;-69
2022/12/13 17:46:25;;;;;;;40.33;19.13;;;-3.60;99.90;;;;;;5051198;28;20016;-71
2022/12/13 17:48:51;;;;;;;44.47;19.08;;;-3.60;99.90;;;;;;5050589;28;20028;-69
2022/12/13 17:51:18;;;;;;;41.47;19.48;;;-3.60;99.90;;;;;;5070215;28;20385;-65
2022/12/13 17:53:43;;;;;;;40.17;19.55;;;-3.60;99.90;;;;;;5064884;28;20075;-67
2022/12/13 17:56:11;;;;;;;45.60;21.00;;;-3.60;99.90;;;;;;5070542;28;20037;-69
2022/12/13 17:58:37;;;;;;;41.55;19.25;;;-3.60;99.90;;;;;;5089959;28;20065;-67
2022/12/13 18:01:29;;;;;;;41.08;20.60;;;-3.60;99.90;;;;;;5089603;28;20043;-65
2022/12/13 18:03:55;;;;;;;;;;;-3.50;99.90;;;;;;5085870;28;20032;-65
2022/12/13 18:06:22;;;;;;;39.92;17.83;;;-3.50;99.90;;;;;;5090988;28;19935;-64
2022/12/13 18:08:47;;;;;;;42.25;20.02;;;-3.60;99.90;;;;;;5090482;28;20107;-67
2022/12/13 18:11:15;;;;;;;47.78;20.65;;;-3.60;99.90;;;;;;5085790;28;20074;-66
2022/12/13 18:13:41;;;;;;;41.53;21.10;;;-3.60;99.90;;;;;;5089236;28;20024;-67
2022/12/13 18:16:09;;;;;;;41.35;22.08;;;-3.70;99.90;;;;;;5089685;28;20072;-67
2022/12/13 18:18:35;;;;;;;42.70;20.67;;;-3.70;99.90;;;;;;5090573;28;20028;-66
2022/12/13 18:21:06;;;;;;;44.70;20.73;;;-3.60;99.90;;;;;;5073884;28;20468;-67
2022/12/13 18:23:33;;;;;;;48.45;21.50;;;-3.60;99.90;;;;;;5078959;28;20032;-67
2022/12/13 18:26:04;;;;;;;43.00;19.42;;;-3.70;99.90;;;;;;5070983;28;20020;-65
2022/12/13 18:28:30;;;;;;;39.85;17.00;;;-3.60;99.90;;;;;;5052839;28;20024;-66
2022/12/13 18:31:07;;;;;;;42.70;20.30;;;-3.60;99.90;;;;;;5077989;28;20491;-66
2022/12/13 18:33:34;;;;;;;44.75;18.30;;;-3.60;99.90;;;;;;5071001;28;20025;-67
2022/12/13 18:35:59;;;;;;;44.10;18.05;;;-3.60;99.90;;;;;;5071022;28;20359;-65
2022/12/13 18:38:25;;;;;;;39.50;18.15;;;-3.60;99.90;;;;;;5070886;28;20480;-67
2022/12/13 18:40:54;;;;;;;41.83;18.33;;;-3.60;99.90;;;;;;5063603;28;20024;-66
2022/12/13 18:43:21;;;;;;;34.53;18.58;;;-3.60;99.90;;;;;;5091158;28;20027;-66
2022/12/13 18:45:46;;;;;;;35.50;17.90;;;-3.50;99.90;;;;;;5090569;28;20035;-67
2022/12/13 18:48:13;;;;;;;37.75;18.55;;;-3.50;99.90;;;;;;5091026;28;20384;-66
2022/12/13 18:50:38;;;;;;;34.13;18.05;;;-3.50;99.90;;;;;;5071538;28;20029;-63
2022/12/13 18:53:04;;;;;;;38.17;18.95;;;-3.50;99.90;;;;;;5082944;28;20024;-66
2022/12/13 18:55:30;;;;;;;39.10;17.98;;;-3.50;99.90;;;;;;5090930;28;20147;-66
2022/12/13 18:57:55;;;;;;;35.33;17.55;;;-3.40;99.90;;;;;;5091062;28;20558;-66
2022/12/13 19:00:23;;;;;;;36.92;16.88;;;-3.40;99.90;;;;;;5088371;28;20036;-66
2022/12/13 19:02:48;;;;;;;37.78;18.00;;;-3.40;99.90;;;;;;5072705;28;20031;-65
2022/12/13 19:05:15;;;;;;;38.63;19.63;;;-3.40;99.90;;;;;;5091102;28;20016;-66
2022/12/13 19:07:41;;;;;;;38.67;18.00;;;-3.40;99.90;;;;;;5090491;28;20088;-66
2022/12/13 19:10:07;;;;;;;35.75;17.10;;;-3.40;99.90;;;;;;5088804;28;20384;-67
2022/12/13 19:12:33;;;;;;;33.50;19.08;;;-3.40;99.90;;;;;;5090478;28;20024;-66
2022/12/13 19:15:00;;;;;;;37.63;18.33;;;-3.40;99.90;;;;;;5090728;28;20031;-66
2022/12/13 19:17:25;;;;;;;34.45;17.13;;;-3.50;99.90;;;;;;5085246;28;20125;-66
2022/12/13 19:19:52;;;;;;;39.70;18.42;;;-3.50;99.90;;;;;;5090973;28;20592;-66
2022/12/13 19:22:18;;;;;;;40.75;20.27;;;-3.50;99.90;;;;;;5090363;28;20047;-66
2022/12/13 19:24:44;;;;;;;30.50;16.25;;;-3.50;99.90;;;;;;5072168;28;20076;-66
2022/12/13 19:27:10;;;;;;;36.33;17.77;;;-3.60;99.90;;;;;;5070913;28;20487;-66
2022/12/13 19:29:35;;;;;;;36.22;16.52;;;-3.60;99.90;;;;;;5090466;28;20016;-66
2022/12/13 19:32:01;;;;;;;31.23;16.38;;;-3.60;99.90;;;;;;5090570;28;20024;-65
2022/12/13 19:34:26;;;;;;;36.53;16.55;;;-3.60;99.90;;;;;;5089816;28;20350;-66
2022/12/13 19:36:52;;;;;;;34.65;17.60;;;-3.60;99.90;;;;;;5088376;28;20107;-67
2022/12/13 19:39:18;;;;;;;35.53;18.33;;;-3.60;99.90;;;;;;5072323;28;20024;-67
2022/12/13 19:41:43;;;;;;;35.35;16.98;;;-3.60;99.90;;;;;;5068061;28;20031;-66
2022/12/13 19:44:10;;;;;;;36.53;16.90;;;-3.70;99.90;;;;;;5071973;28;20017;-67
2022/12/13 19:46:36;;;;;;;31.50;15.43;;;-3.70;99.90;;;;;;5056527;28;20127;-67
2022/12/13 19:49:01;;;;;;;37.80;17.15;;;-3.70;99.90;;;;;;5075437;28;20091;-67
